Observations for Trim Patrick St
| Time | AQI | Temp °C | Hum % | Pres Pa | CO μg/m³ | H₂S μg/m³ | NO μg/m³ | NO₂ μg/m³ | O₃ μg/m³ | SO₂ μg/m³ | PM1 μg/m³ | PM2.5 μg/m³ | PM10 μg/m³ |
|---|---|---|---|---|---|---|---|---|---|---|---|---|---|
| Saturday 1 August 2026 | |||||||||||||
| 08:27 | 1 | 15.5 | 72 | 38,460 | 0.34 | 0 | 2.86 | 10.77 | 20.76 | 0 | 3.71 | 7.9 | 8.69 |
| 08:26 | 1 | 15.5 | 72 | 38,460 | 0.35 | 0 | 2.77 | 11.08 | 19.84 | 0 | 4.57 | 8.64 | 9.5 |
| 08:23 | 1 | 15.3 | 72 | 38,460 | 0.34 | 0 | 2.9 | 10.83 | 22.33 | 0 | 5.43 | 8.57 | 9.43 |
| 08:22 | 1 | 15.2 | 72 | 38,460 | 0.34 | 0 | 2.87 | 11.25 | 24.26 | 0 | 5.43 | 9.29 | 10.22 |
| 08:20 | 1 | 15.1 | 72 | 38,460 | 0.33 | 0 | 2.98 | 11.68 | 21.19 | 0 | 6.29 | 10.72 | 11.79 |
| 08:17 | 1 | 14.9 | 72 | 38,460 | 0.34 | 0 | 3.06 | 11.62 | 26.65 | 0 | 5.43 | 9.3 | 10.23 |
| 08:16 | 1 | 14.9 | 73 | 38,460 | 0.34 | 0 | 3.02 | 12.05 | 21.96 | 0 | 4.57 | 9.27 | 10.2 |
| 08:15 | 1 | 14.8 | 73 | 38,460 | 0.35 | 0 | 2.97 | 12.05 | 21.35 | 0 | 6.29 | 10.65 | 11.71 |
| 08:14 | 1 | 14.7 | 73 | 38,460 | 0.34 | 0 | 3.17 | 12.88 | 22.17 | 0 | 4.57 | 9.22 | 10.14 |
| 08:13 | 1 | 14.7 | 74 | 38,460 | 0.34 | 0 | 3.02 | 11.32 | 20.33 | 0 | 4.57 | 8.45 | 9.29 |
| 08:12 | 1 | 14.6 | 74 | 38,460 | 0.34 | 0 | 2.99 | 13.54 | 21.19 | 0 | 4.57 | 8.46 | 9.3 |
| 08:11 | 1 | 14.6 | 74 | 38,460 | 0.34 | 0 | 3.04 | 12.86 | 17.91 | 0 | 5.43 | 9.88 | 10.87 |
| 08:10 | 1 | 14.5 | 74 | 38,460 | 0.35 | 0 | 3.16 | 11.8 | 22.29 | 0 | 4.57 | 9.18 | 10.1 |
| 08:09 | 1 | 14.5 | 74 | 38,460 | 0.34 | 0 | 2.95 | 11.95 | 19.33 | 0 | 3.71 | 7.73 | 8.5 |
| 08:08 | 1 | 14.5 | 74 | 38,460 | 0.35 | 0 | 3.03 | 11.69 | 19.16 | 0 | 4.57 | 8.48 | 9.33 |
| 08:07 | 1 | 14.4 | 73 | 38,460 | 0.36 | 0 | 3.09 | 10.49 | 19.32 | 0 | 5.43 | 9.27 | 10.2 |
| 08:06 | 1 | 14.4 | 74 | 38,460 | 0.41 | 0 | 3.06 | 13.27 | 19.08 | 0 | 5.43 | 9.9 | 10.89 |
| 08:05 | 1 | 14.4 | 74 | 38,460 | 0.39 | 0 | 3.01 | 13 | 18.42 | 0 | 4.57 | 9.15 | 10.06 |
| 08:04 | 1 | 14.3 | 74 | 38,460 | 0.37 | 0 | 3.09 | 14.22 | 21.8 | 0 | 4.57 | 9.15 | 10.06 |
| 08:03 | 1 | 14.3 | 75 | 38,460 | 0.35 | 0 | 2.99 | 11.3 | 15.93 | 0 | 4.57 | 7.69 | 8.45 |